Terminal Aerodrome Forecast
Issued by NWS

Current Version | Previous Version | Text Only | Print | Product List | Glossary On
Versions: 1 2 3 4 5 6 7 8 9 10 11 12 13
920
FTUS41 KBTV 241132
TAFMSS
TAF
KMSS 241132Z 2412/2512 00000KT P6SM BKN070
     FM241700 04006KT P6SM BKN080
     FM250000 12006KT P6SM BKN100
     FM250600 06006KT P6SM BKN060=

USA.gov is the U.S. government's official web portal to all federal, state and local government web resources and services.